Latest Weather Observations for Mildura

IDV60801

Issued at 8:32 am EST Tuesday 7 April 2020 (issued every 10 minutes, with the page automatically refreshed every 10 minutes)

About weather observations | Map of weather stations | Latest weather observations for VIC | Other Formats
Station Details ID: 076031 Name: MILDURA AIRPORT Lat: -34.24 Lon: 142.09 Height: 50.0 m
Data from the previous 72 hours. | See also: Recent months at Mildura
Date/Time
EST
Temp
°C
App
Temp
°C
Dew
Point
°C
Rel
Hum
%
Delta-T
°C
Wind Press
QNH
hPa
Press
MSL
hPa
Rain since
9am
mm
Dir  Spd
km/h
Gust
km/h
Spd
kts
Gust
kts
07/08:30am 13.5 10.7 7.1 65 3.1 E 11 15 6 8 1024.0 1023.9 0.0
07/08:00am 11.5 9.6 7.4 76 2.0 E 7 9 4 5 1023.8 1023.7 0.0
07/07:30am 11.1 10.5 7.2 77 1.9 CALM 0 0 0 0 1023.6 1023.5 0.0
07/07:00am 11.0 9.1 6.9 76 1.9 ESE 6 9 3 5 1023.3 1023.2 0.0
07/06:30am 11.2 9.1 6.7 74 2.1 E 7 11 4 6 1022.9 1022.8 0.0
07/06:00am 11.1 9.1 7.2 77 1.9 E 7 11 4 6 1022.4 1022.3 0.0
07/05:30am 11.4 9.4 7.1 75 2.1 ENE 7 7 4 4 1022.5 1022.4 0.0
07/05:00am 11.5 9.5 7.0 74 2.1 E 7 11 4 6 1022.1 1022.0 0.0
07/04:30am 11.3 9.3 7.2 76 2.0 SE 7 13 4 7 1022.1 1022.0 0.0
07/04:00am 11.5 9.1 7.2 75 2.1 SE 9 11 5 6 1022.1 1022.0 0.0
07/03:30am 11.3 10.3 7.2 76 2.0 ESE 2 7 1 4 1022.2 1022.1 0.0
07/03:00am 10.8 8.8 6.9 77 1.8 ESE 7 9 4 5 1022.0 1021.9 0.0
07/02:30am 10.3 8.3 7.2 81 1.5 SSE 7 9 4 5 1022.4 1022.3 0.0
07/02:00am 9.4 7.9 6.8 84 1.2 S 4 6 2 3 1022.4 1022.3 0.0
07/01:30am 9.7 7.8 6.6 81 1.4 SSE 6 7 3 4 1022.5 1022.4 0.0
07/01:00am 10.3 8.4 6.5 77 1.8 S 6 9 3 5 1022.6 1022.5 0.0
07/12:30am 10.4 8.5 6.5 77 1.8 S 6 9 3 5 1022.7 1022.6 0.0
07/12:00am 10.9 9.0 6.6 75 2.0 SSE 6 7 3 4 1022.9 1022.8 0.0
 
Date/Time
EST
Temp
°C
App
Temp
°C
Dew
Point
°C
Rel
Hum
%
Delta-T
°C
Wind Press
QNH
hPa
Press
MSL
hPa
Rain since
9am
mm
Dir  Spd
km/h
Gust
km/h
Spd
kts
Gust
kts
06/11:30pm 11.8 9.7 6.5 70 2.5 SSE 7 9 4 5 1023.0 1022.9 0.0
06/11:00pm 12.3 9.9 6.8 69 2.6 SE 9 11 5 6 1023.2 1023.1 0.0
06/10:30pm 12.4 10.4 6.9 69 2.6 SE 7 9 4 5 1023.4 1023.3 0.0
06/10:00pm 13.1 11.0 6.7 65 3.1 SSE 7 9 4 5 1023.5 1023.4 0.0
06/09:30pm 13.7 11.3 6.8 63 3.3 SE 9 11 5 6 1023.2 1023.1 0.0
06/09:00pm 14.3 11.4 6.6 60 3.7 SE 11 15 6 8 1022.9 1022.8 0.0
06/08:30pm 14.6 11.9 7.2 61 3.6 SE 11 15 6 8 1022.6 1022.5 0.0
06/08:00pm 14.9 12.9 7.2 60 3.8 SE 7 9 4 5 1022.4 1022.3 0.0
06/07:30pm 15.4 13.4 7.2 58 4.1 SE 7 9 4 5 1022.3 1022.2 0.0
06/07:00pm 16.2 13.9 7.4 56 4.4 SE 9 11 5 6 1021.8 1021.7 0.0
06/06:30pm 17.3 14.9 7.1 51 5.1 SSE 9 13 5 7 1021.6 1021.5 0.0
06/06:00pm 18.3 15.2 7.1 48 5.6 SSE 13 17 7 9 1021.5 1021.4 0.0
06/05:30pm 19.1 15.7 7.5 47 5.9 S 15 20 8 11 1021.3 1021.2 0.0
06/05:00pm 19.3 15.8 7.4 46 6.0 S 15 24 8 13 1021.0 1020.9 0.0
06/04:30pm 19.2 16.5 7.3 46 6.0 S 11 19 6 10 1021.0 1020.9 0.0
06/04:00pm 20.0 17.0 7.7 45 6.3 S 13 19 7 10 1021.0 1020.9 0.0
06/03:30pm 19.6 16.9 7.4 45 6.2 S 11 19 6 10 1021.0 1020.9 0.0
06/03:00pm 19.3 16.3 7.7 47 5.9 S 13 22 7 12 1021.0 1020.9 0.0
06/02:30pm 19.2 16.6 7.9 48 5.8 S 11 20 6 11 1021.2 1021.1 0.0
06/02:00pm 19.0 16.2 8.4 50 5.5 SSW 13 20 7 11 1021.4 1021.3 0.0
06/01:30pm 18.6 15.9 7.4 48 5.7 S 11 17 6 9 1021.6 1021.5 0.0
06/01:00pm 18.5 15.2 8.2 51 5.3 S 15 20 8 11 1021.9 1021.8 0.0
06/12:30pm 18.2 15.4 8.5 53 5.0 SSW 13 24 7 13 1022.3 1022.2 0.0
06/12:00pm 17.9 15.8 8.2 53 5.0 SSW 9 19 5 10 1022.5 1022.4 0.0
06/11:30am 17.9 15.2 9.0 56 4.6 S 13 19 7 10 1022.7 1022.6 0.0
06/11:00am 17.2 14.9 8.9 58 4.3 SSW 11 19 6 10 1022.9 1022.8 0.0
06/10:30am 16.9 14.5 10.1 64 3.6 SSW 13 20 7 11 1023.2 1023.1 0.0
06/10:00am 15.8 13.8 10.3 70 2.9 SSW 11 20 6 11 1023.4 1023.3 0.0
06/09:30am 15.7 13.0 10.5 71 2.8 S 15 20 8 11 1023.3 1023.2 0.0
06/09:00am 15.0 13.3 11.2 78 2.0 S 11 19 6 10 1023.2 1023.1 0.0
06/08:30am 14.3 12.4 11.8 85 1.3 SSW 13 19 7 10 1022.8 1022.7 0.0
06/08:00am 13.5 13.1 12.9 96 0.3 SSW 7 13 4 7 1022.2 1022.1 0.0
06/07:30am 12.8 12.5 12.8 100 0.0 WSW 6 7 3 4 1021.7 1021.6 0.0
06/07:00am 12.5 12.0 12.5 100 0.0 WSW 7 9 4 5 1021.3 1021.2 0.0
06/06:41am 12.6 12.1 12.6 100 0.0 SW 7 11 4 6 1021.1 1021.0 0.0
06/06:30am 12.4 11.8 12.4 100 0.0 SW 7 11 4 6 1020.9 1020.8 0.0
06/06:23am 12.3 11.7 12.3 100 0.0 SW 7 9 4 5 1020.9 1020.8 0.0
06/06:00am 12.2 11.7 12.2 100 0.0 WSW 6 9 3 5 1020.6 1020.5 0.0
06/05:30am 12.5 12.0 12.2 98 0.2 WSW 6 7 3 4 1020.1 1020.0 0.0
06/05:00am 13.0 12.4 12.4 96 0.3 WSW 7 9 4 5 1019.8 1019.7 0.0
06/04:30am 13.5 12.5 12.4 93 0.6 WSW 9 11 5 6 1019.5 1019.4 0.0
06/04:00am 13.9 13.4 12.5 91 0.8 WSW 7 9 4 5 1019.4 1019.3 0.0
06/03:30am 14.0 13.4 12.4 90 0.9 W 7 9 4 5 1019.2 1019.1 0.0
06/03:00am 14.3 13.7 12.3 88 1.1 WSW 7 9 4 5 1019.1 1019.0 0.0
06/02:30am 14.3 13.7 12.3 88 1.1 W 7 9 4 5 1019.3 1019.2 0.0
06/02:00am 14.6 14.1 12.5 87 1.1 WSW 7 9 4 5 1019.2 1019.1 0.0
06/01:30am 15.0 14.3 12.1 83 1.6 W 7 9 4 5 1019.2 1019.1 0.0
06/01:00am 15.1 14.4 12.1 82 1.6 WSW 7 11 4 6 1019.2 1019.1 0.0
06/12:30am 15.3 14.1 11.7 79 1.9 SW 9 15 5 8 1019.1 1019.0 0.0
06/12:00am 16.0 14.5 11.8 76 2.3 WSW 11 15 6 8 1019.0 1018.9 0.0
 
Date/Time
EST
Temp
°C
App
Temp
°C
Dew
Point
°C
Rel
Hum
%
Delta-T
°C
Wind Press
QNH
hPa
Press
MSL
hPa
Rain since
9am
mm
Dir  Spd
km/h
Gust
km/h
Spd
kts
Gust
kts
05/11:30pm 16.5 14.9 11.6 73 2.7 SW 11 20 6 11 1019.0 1018.9 0.0
05/11:00pm 16.7 14.7 11.6 72 2.8 SW 13 20 7 11 1019.0 1018.9 0.0
05/10:30pm 16.7 15.1 11.6 72 2.8 WSW 11 17 6 9 1018.8 1018.7 0.0
05/10:00pm 17.1 16.4 12.0 72 2.8 WSW 7 17 4 9 1018.4 1018.3 0.0
05/09:30pm 17.4 16.3 11.9 70 3.0 SW 9 15 5 8 1018.1 1018.0 0.0
05/09:00pm 17.6 16.0 11.4 67 3.4 SW 11 17 6 9 1017.8 1017.7 0.0
05/08:30pm 17.7 15.9 11.0 65 3.6 WNW 11 17 6 9 1017.1 1017.1 0.0
05/08:00pm 17.2 15.8 11.0 67 3.3 WNW 9 15 5 8 1016.8 1016.8 0.0
05/07:30pm 17.8 16.0 10.7 63 3.8 W 11 17 6 9 1016.5 1016.5 0.0
05/07:00pm 18.4 16.9 10.5 60 4.2 WNW 9 15 5 8 1016.1 1016.1 0.0
05/06:30pm 19.0 17.4 10.3 57 4.7 W 9 15 5 8 1015.7 1015.7 0.0
05/06:00pm 19.6 17.2 10.0 54 5.1 WNW 13 19 7 10 1015.5 1015.5 0.0
05/05:30pm 19.8 16.0 9.1 50 5.7 WNW 19 28 10 15 1015.3 1015.3 0.0
05/05:00pm 19.7 16.3 9.3 51 5.5 WNW 17 24 9 13 1015.2 1015.2 0.0
05/04:30pm 19.8 16.5 9.4 51 5.5 WNW 17 28 9 15 1015.1 1015.1 0.0
05/04:00pm 19.8 16.5 9.7 52 5.4 WNW 17 28 9 15 1015.1 1015.1 0.0
05/03:30pm 19.7 16.0 9.6 52 5.4 WNW 19 32 10 17 1015.2 1015.2 0.0
05/03:00pm 19.3 15.3 9.2 52 5.3 WNW 20 32 11 17 1015.1 1015.1 0.0
05/02:30pm 18.9 15.1 9.7 55 4.9 WNW 20 32 11 17 1015.3 1015.3 0.0
05/02:00pm 18.6 15.1 10.2 58 4.5 WNW 19 30 10 16 1015.4 1015.4 0.0
05/01:30pm 18.4 14.1 9.5 56 4.7 WNW 22 32 12 17 1015.6 1015.6 0.0
05/01:00pm 18.4 14.6 9.7 57 4.6 WNW 20 32 11 17 1015.9 1015.9 0.0
05/12:30pm 18.2 14.3 9.3 56 4.7 W 20 37 11 20 1016.2 1016.2 0.0
05/12:00pm 17.9 13.7 9.8 59 4.3 WNW 22 35 12 19 1016.5 1016.5 0.0
05/11:30am 17.6 13.3 9.2 58 4.4 WNW 22 39 12 21 1016.6 1016.6 0.0
05/11:00am 17.6 13.5 10.0 61 4.0 WNW 22 35 12 19 1016.7 1016.7 0.0
05/10:30am 17.0 13.3 10.1 64 3.7 WNW 20 32 11 17 1016.9 1016.9 0.0
05/10:00am 16.3 12.6 10.2 67 3.2 WNW 20 32 11 17 1017.0 1017.0 0.0
05/09:30am 15.5 11.8 10.3 71 2.7 NW 20 30 11 16 1017.1 1017.1 0.0
05/09:00am 14.6 11.5 10.2 75 2.3 NW 17 26 9 14 1016.9 1016.9 0.2
05/08:30am 13.8 10.7 10.2 79 1.9 NW 17 28 9 15 1016.8 1016.8 0.2
05/08:00am 13.2 10.8 10.0 81 1.6 NW 13 20 7 11 1016.4 1016.4 0.2
05/07:30am 12.3 9.9 9.9 85 1.2 NW 13 19 7 10 1015.9 1015.9 0.2
05/07:00am 12.4 9.6 10.0 85 1.2 NW 15 22 8 12 1015.8 1015.8 0.2
05/06:30am 12.3 10.0 10.4 88 1.0 NW 13 20 7 11 1015.5 1015.5 0.2
05/06:00am 12.1 10.6 10.5 90 0.8 NW 9 19 5 10 1015.2 1015.2 0.2
05/05:30am 12.3 10.8 10.4 88 1.0 NNW 9 15 5 8 1014.7 1014.7 0.2
05/05:00am 12.5 10.6 10.4 87 1.1 NW 11 19 6 10 1014.7 1014.7 0.2
05/04:30am 12.6 10.6 10.3 86 1.2 NW 11 17 6 9 1014.6 1014.6 0.2
05/04:00am 12.2 10.2 10.3 88 1.0 NW 11 15 6 8 1014.3 1014.3 0.2
05/03:30am 11.8 10.1 10.0 89 0.9 NW 9 15 5 8 1014.2 1014.2 0.2
05/03:00am 11.7 10.5 10.3 91 0.7 NW 7 9 4 5 1014.2 1014.2 0.2
05/03:30am 11.6 10.4 10.2 91 0.7 NW 7 9 4 5 1014.2 1014.2 0.2
05/03:00am 11.2 9.5 9.8 91 0.7 NW 9 11 5 6 1014.3 1014.3 0.2
05/02:30am 11.3 9.5 9.6 89 0.9 NW 9 13 5 7 1014.1 1014.1 0.2
05/02:00am 11.0 9.2 9.4 90 0.8 WNW 9 11 5 6 1014.2 1014.2 0.2
05/01:30am 11.3 9.9 9.4 88 1.0 WNW 7 9 4 5 1014.2 1014.2 0.2
05/01:00am 11.4 9.9 9.3 87 1.1 WNW 7 11 4 6 1014.3 1014.3 0.2
05/12:30am 11.9 10.6 9.3 84 1.3 W 6 11 3 6 1014.4 1014.4 0.2
05/12:00am 12.3 10.4 9.1 81 1.6 W 9 13 5 7 1014.4 1014.4 0.2
 
Date/Time
EST
Temp
°C
App
Temp
°C
Dew
Point
°C
Rel
Hum
%
Delta-T
°C
Wind Press
QNH
hPa
Press
MSL
hPa
Rain since
9am
mm
Dir  Spd
km/h
Gust
km/h
Spd
kts
Gust
kts
04/11:30pm 12.6 10.7 9.1 79 1.8 W 9 15 5 8 1014.6 1014.6 0.2
04/11:00pm 13.3 10.9 8.8 74 2.3 WSW 11 17 6 9 1014.0 1014.0 0.2
04/10:30pm 13.9 10.8 8.9 72 2.5 WSW 15 20 8 11 1013.9 1013.9 0.2
04/10:00pm 14.4 10.9 8.8 69 2.8 WSW 17 30 9 16 1013.7 1013.7 0.2
04/09:30pm 14.5 11.0 8.9 69 2.8 SW 17 28 9 15 1013.3 1013.2 0.2
04/09:00pm 14.7 11.7 9.3 70 2.8 WSW 15 22 8 12 1012.9 1012.8 0.2
04/08:30pm 14.5 12.5 10.1 75 2.3 W 11 17 6 9 1012.1 1012.0 0.2
04/08:00pm 15.7 12.6 8.9 64 3.5 WSW 15 22 8 12 1011.4 1011.3 0.2
04/07:30pm 15.9 12.2 9.3 65 3.4 WSW 19 28 10 15 1011.0 1010.9 0.2
04/07:00pm 16.0 11.3 9.4 65 3.4 WSW 24 43 13 23 1010.6 1010.5 0.2
04/06:30pm 17.5 13.8 9.4 59 4.2 WNW 19 30 10 16 1009.9 1009.8 0.0
04/06:23pm 17.6 13.6 9.2 58 4.4 WNW 20 35 11 19 1009.8 1009.7 0.0
04/06:00pm 18.1 13.7 7.5 50 5.4 W 20 37 11 20 1009.5 1009.4 0.0
04/05:30pm 19.1 14.0 6.2 43 6.4 W 22 35 12 19 1009.2 1009.1 0.0
04/05:00pm 19.4 14.0 6.5 43 6.5 W 24 41 13 22 1008.9 1008.8 0.0
04/04:30pm 18.6 13.2 6.4 45 6.1 W 24 39 13 21 1008.9 1008.8 0.0
04/04:00pm 18.7 13.6 5.9 43 6.3 W 22 35 12 19 1008.8 1008.7 0.0
04/03:30pm 18.5 12.2 5.7 43 6.3 W 28 41 15 22 1008.7 1008.6 0.0
04/03:19pm 18.8 12.5 5.6 42 6.5 W 28 46 15 25 1008.6 1008.5 0.0
04/03:00pm 18.4 12.7 6.9 47 5.8 W 26 44 14 24 1008.6 1008.5 0.0
04/02:30pm 18.7 14.1 8.1 50 5.5 W 22 37 12 20 1008.6 1008.5 0.0
04/02:16pm 17.7 12.3 8.0 53 5.0 W 26 43 14 23 1008.7 1008.6 0.0
04/02:10pm 17.8 12.4 8.1 53 5.0 W 26 43 14 23 1008.7 1008.6 0.0
04/02:00pm 17.5 11.3 7.8 53 4.9 W 30 43 16 23 1008.8 1008.7 0.0
04/01:32pm 17.7 12.8 8.6 55 4.7 W 24 46 13 25 1008.7 1008.6 0.0
04/01:30pm 17.6 12.6 8.2 54 4.8 W 24 46 13 25 1008.7 1008.6 0.0
04/01:23pm 16.6 12.3 7.8 56 4.4 W 20 39 11 21 1008.8 1008.7 0.0
04/01:07pm 16.9 11.9 8.1 56 4.5 W 24 41 13 22 1008.9 1008.8 0.0
04/01:00pm 16.9 12.5 9.1 60 4.1 W 22 41 12 22 1009.0 1008.9 0.0
04/12:30pm 16.2 11.7 8.7 61 3.8 WSW 22 39 12 21 1009.0 1008.9 0.0
04/12:00pm 15.9 10.9 8.2 60 3.9 WSW 24 44 13 24 1009.0 1008.9 0.0
04/11:30am 15.4 10.1 8.4 63 3.5 W 26 39 14 21 1009.0 1008.9 0.0
04/11:00am 15.7 11.9 9.8 68 3.1 W 20 33 11 18 1008.8 1008.7 0.0
04/10:30am 15.0 10.5 10.0 72 2.6 W 24 35 13 19 1008.6 1008.5 0.0
04/10:00am 14.3 10.5 9.7 74 2.4 W 20 33 11 18 1008.2 1008.1 0.0

Other formats

Comma delimited format used in spreadsheet applications
http://www.bom.gov.au/fwo/IDV60801/IDV60801.94693.axf

JavaScript Object Notation format (JSON) in row-major order
http://www.bom.gov.au/fwo/IDV60801/IDV60801.94693.json

Data quality

Most of these data are generated automatically and are frequently updated. Quality checks on data are not normally performed. It is possible for incorrect values to appear. Refer to information at About Latest Weather Observations and please check the disclaimer before using these data.